JST246 YSSY-YBBN
Flight info
| Callsign | JST246 |
|---|---|
| Flight time | 1h 12m |
| Altitude | 37000 |
| Route | OLSEM Y193 BANDA H252 BN |
| Aircraft | A320/M-SDE3FGHIRWY/LB1 |
Departure
| Time | 2026-04-22 06:36 |
|---|---|
| Airport | Sydney Kingsford Smith International Airport (YSSY) |
Arrival
| Time | 2026-04-22 07:48 |
|---|---|
| Airport | Brisbane International Airport (YBBN) |
| Time | Latitude | Longitude | Altitude | Speed | Heading |
|---|---|---|---|---|---|
| 2026-04-22 05:44 | -33.93562 | 151.17773 | 30 ft | 0 kts | 280° |
| 2026-04-22 06:21 | -33.93562 | 151.17774 | 30 ft | 1 kts | 280° |
| 2026-04-22 06:22 | -33.93566 | 151.17802 | 30 ft | 4 kts | 274° |
| 2026-04-22 06:22 | -33.93564 | 151.17827 | 30 ft | 4 kts | 212° |
| 2026-04-22 06:22 | -33.93559 | 151.17831 | 30 ft | 0 kts | 187° |
| 2026-04-22 06:29 | -33.93563 | 151.17830 | 30 ft | 2 kts | 187° |
| 2026-04-22 06:29 | -33.93588 | 151.17826 | 30 ft | 8 kts | 188° |
| 2026-04-22 06:29 | -33.93654 | 151.17811 | 30 ft | 11 kts | 190° |
| 2026-04-22 06:30 | -33.93737 | 151.17795 | 28 ft | 14 kts | 189° |
| 2026-04-22 06:30 | -33.93867 | 151.17772 | 21 ft | 21 kts | 179° |
| 2026-04-22 06:30 | -33.94008 | 151.17808 | 23 ft | 21 kts | 167° |
| 2026-04-22 06:30 | -33.94159 | 151.17847 | 27 ft | 22 kts | 168° |
| 2026-04-22 06:31 | -33.94311 | 151.17886 | 26 ft | 23 kts | 168° |
| 2026-04-22 06:31 | -33.94468 | 151.17902 | 25 ft | 23 kts | 202° |
| 2026-04-22 06:31 | -33.94624 | 151.17910 | 24 ft | 23 kts | 167° |
| 2026-04-22 06:31 | -33.94786 | 151.17952 | 22 ft | 25 kts | 168° |
| 2026-04-22 06:32 | -33.94957 | 151.17996 | 25 ft | 25 kts | 168° |
| 2026-04-22 06:32 | -33.95093 | 151.18053 | 29 ft | 19 kts | 128° |
| 2026-04-22 06:32 | -33.95084 | 151.18211 | 24 ft | 21 kts | 78° |
| 2026-04-22 06:32 | -33.95053 | 151.18387 | 27 ft | 22 kts | 78° |
| 2026-04-22 06:33 | -33.95020 | 151.18571 | 26 ft | 24 kts | 78° |
| 2026-04-22 06:33 | -33.94995 | 151.18716 | 24 ft | 0 kts | 78° |
| 2026-04-22 06:34 | -33.94993 | 151.18731 | 24 ft | 3 kts | 78° |
| 2026-04-22 06:35 | -33.94984 | 151.18786 | 24 ft | 10 kts | 78° |
| 2026-04-22 06:35 | -33.95022 | 151.18849 | 23 ft | 12 kts | 164° |
| 2026-04-22 06:35 | -33.95231 | 151.18902 | 21 ft | 70 kts | 168° |
| 2026-04-22 06:35 | -33.95960 | 151.19093 | 31 ft | 138 kts | 167° |
| 2026-04-22 06:36 | -33.96993 | 151.19364 | 471 ft | 162 kts | 167° |
| 2026-04-22 06:36 | -33.98075 | 151.19981 | 1037 ft | 190 kts | 134° |
| 2026-04-22 06:36 | -33.98916 | 151.21347 | 1779 ft | 213 kts | 127° |
| 2026-04-22 06:36 | -33.99792 | 151.22831 | 2891 ft | 219 kts | 127° |
| 2026-04-22 06:37 | -34.00706 | 151.24341 | 4043 ft | 225 kts | 133° |
| 2026-04-22 06:37 | -34.01862 | 151.25644 | 4716 ft | 241 kts | 142° |
| 2026-04-22 06:37 | -34.03195 | 151.26963 | 5382 ft | 252 kts | 143° |
| 2026-04-22 06:37 | -34.04580 | 151.28304 | 6193 ft | 259 kts | 143° |
| 2026-04-22 06:38 | -34.06001 | 151.29673 | 7022 ft | 263 kts | 142° |
| 2026-04-22 06:38 | -34.07446 | 151.31065 | 7805 ft | 268 kts | 142° |
| 2026-04-22 06:38 | -34.08904 | 151.32475 | 8659 ft | 269 kts | 142° |
| 2026-04-22 06:38 | -34.10367 | 151.33907 | 9510 ft | 271 kts | 139° |
| 2026-04-22 06:39 | -34.11523 | 151.35692 | 10339 ft | 275 kts | 115° |
| 2026-04-22 06:39 | -34.11871 | 151.37967 | 11052 ft | 283 kts | 88° |
| 2026-04-22 06:39 | -34.11277 | 151.40283 | 11535 ft | 304 kts | 60° |
| 2026-04-22 06:39 | -34.09891 | 151.42282 | 12106 ft | 315 kts | 51° |
| 2026-04-22 06:40 | -34.08401 | 151.44240 | 12791 ft | 318 kts | 51° |
| 2026-04-22 06:40 | -34.06747 | 151.46046 | 13490 ft | 326 kts | 39° |
| 2026-04-22 06:40 | -34.04719 | 151.47401 | 13937 ft | 345 kts | 25° |
| 2026-04-22 06:40 | -34.02354 | 151.48254 | 14245 ft | 361 kts | 18° |
| 2026-04-22 06:41 | -33.99903 | 151.49031 | 14753 ft | 367 kts | 18° |
| 2026-04-22 06:41 | -33.97416 | 151.49838 | 15298 ft | 371 kts | 19° |
| 2026-04-22 06:41 | -33.94908 | 151.50664 | 15826 ft | 376 kts | 19° |
| 2026-04-22 06:41 | -33.92371 | 151.51503 | 16362 ft | 380 kts | 19° |
| 2026-04-22 06:42 | -33.89802 | 151.52354 | 16902 ft | 385 kts | 19° |
| 2026-04-22 06:42 | -33.87209 | 151.53206 | 17451 ft | 389 kts | 19° |
| 2026-04-22 06:42 | -33.84583 | 151.54067 | 17986 ft | 393 kts | 19° |
| 2026-04-22 06:42 | -33.81963 | 151.54923 | 18514 ft | 397 kts | 19° |
| 2026-04-22 06:43 | -33.79277 | 151.55799 | 18992 ft | 402 kts | 19° |
| 2026-04-22 06:43 | -33.76568 | 151.56682 | 19468 ft | 406 kts | 19° |
| 2026-04-22 06:43 | -33.73830 | 151.57574 | 19914 ft | 411 kts | 18° |
| 2026-04-22 06:43 | -33.71055 | 151.58477 | 20364 ft | 416 kts | 18° |
| 2026-04-22 06:44 | -33.68249 | 151.59386 | 20820 ft | 420 kts | 18° |
| 2026-04-22 06:44 | -33.65457 | 151.60442 | 21260 ft | 421 kts | 26° |
| 2026-04-22 06:44 | -33.62843 | 151.62020 | 21689 ft | 420 kts | 36° |
| 2026-04-22 06:44 | -33.60387 | 151.63952 | 22112 ft | 423 kts | 38° |
| 2026-04-22 06:45 | -33.57922 | 151.65905 | 22595 ft | 426 kts | 38° |
| 2026-04-22 06:45 | -33.55434 | 151.67867 | 23038 ft | 429 kts | 37° |
| 2026-04-22 06:45 | -33.52922 | 151.69843 | 23387 ft | 435 kts | 37° |
| 2026-04-22 06:45 | -33.50322 | 151.71748 | 23770 ft | 443 kts | 30° |
| 2026-04-22 06:46 | -33.47456 | 151.73180 | 24111 ft | 450 kts | 19° |
| 2026-04-22 06:46 | -33.44416 | 151.74184 | 24471 ft | 454 kts | 17° |
| 2026-04-22 06:46 | -33.41349 | 151.75169 | 24842 ft | 457 kts | 17° |
| 2026-04-22 06:46 | -33.38313 | 151.76150 | 25207 ft | 459 kts | 17° |
| 2026-04-22 06:47 | -33.35221 | 151.77153 | 25569 ft | 462 kts | 16° |
| 2026-04-22 06:47 | -33.32107 | 151.78162 | 25920 ft | 465 kts | 16° |
| 2026-04-22 06:47 | -33.28980 | 151.79174 | 26280 ft | 467 kts | 16° |
| 2026-04-22 06:47 | -33.25831 | 151.80192 | 26641 ft | 470 kts | 15° |
| 2026-04-22 06:48 | -33.22668 | 151.81212 | 26990 ft | 472 kts | 15° |
| 2026-04-22 06:48 | -33.19484 | 151.82235 | 27339 ft | 475 kts | 15° |
| 2026-04-22 06:48 | -33.16287 | 151.83265 | 27689 ft | 477 kts | 15° |
| 2026-04-22 06:48 | -33.13074 | 151.84302 | 28031 ft | 480 kts | 15° |
| 2026-04-22 06:49 | -33.10940 | 151.84991 | 28256 ft | 481 kts | 14° |
| 2026-04-22 06:49 | -33.07695 | 151.86036 | 28625 ft | 483 kts | 14° |
| 2026-04-22 06:49 | -33.04443 | 151.87086 | 28982 ft | 486 kts | 14° |
| 2026-04-22 06:49 | -33.01173 | 151.88141 | 29342 ft | 488 kts | 14° |
| 2026-04-22 06:50 | -32.97888 | 151.89195 | 29685 ft | 490 kts | 14° |
| 2026-04-22 06:50 | -32.94578 | 151.90247 | 30024 ft | 493 kts | 14° |
| 2026-04-22 06:50 | -32.91258 | 151.91300 | 30367 ft | 495 kts | 13° |
| 2026-04-22 06:50 | -32.87926 | 151.92360 | 30649 ft | 497 kts | 13° |
| 2026-04-22 06:51 | -32.84580 | 151.93431 | 31032 ft | 497 kts | 13° |
| 2026-04-22 06:51 | -32.81259 | 151.94498 | 31397 ft | 498 kts | 13° |
| 2026-04-22 06:51 | -32.77917 | 151.95571 | 31768 ft | 498 kts | 13° |
| 2026-04-22 06:51 | -32.74573 | 151.96639 | 32163 ft | 497 kts | 12° |
| 2026-04-22 06:52 | -32.71227 | 151.97702 | 32568 ft | 496 kts | 12° |
| 2026-04-22 06:52 | -32.67890 | 151.98759 | 32974 ft | 496 kts | 12° |
| 2026-04-22 06:52 | -32.64559 | 151.99815 | 33387 ft | 495 kts | 12° |
| 2026-04-22 06:52 | -32.61240 | 152.00868 | 33809 ft | 494 kts | 12° |
| 2026-04-22 06:53 | -32.57917 | 152.01926 | 34218 ft | 494 kts | 12° |
| 2026-04-22 06:53 | -32.54598 | 152.02983 | 34581 ft | 493 kts | 12° |
| 2026-04-22 06:53 | -32.51329 | 152.04024 | 34929 ft | 492 kts | 11° |
| 2026-04-22 06:53 | -32.48018 | 152.05077 | 35218 ft | 492 kts | 11° |
| 2026-04-22 06:54 | -32.44709 | 152.06127 | 35287 ft | 492 kts | 11° |
| 2026-04-22 06:54 | -32.38096 | 152.08213 | 35302 ft | 492 kts | 11° |
| 2026-04-22 06:55 | -32.31477 | 152.10297 | 35304 ft | 492 kts | 11° |
| 2026-04-22 06:55 | -32.24862 | 152.12387 | 35303 ft | 492 kts | 11° |
| 2026-04-22 06:56 | -32.18254 | 152.14473 | 35306 ft | 492 kts | 11° |
| 2026-04-22 06:56 | -32.11637 | 152.16551 | 35306 ft | 492 kts | 11° |
| 2026-04-22 06:57 | -32.05024 | 152.18629 | 35307 ft | 492 kts | 11° |
| 2026-04-22 06:57 | -31.98417 | 152.20702 | 35297 ft | 491 kts | 10° |
| 2026-04-22 06:58 | -31.91806 | 152.22773 | 35299 ft | 491 kts | 10° |
| 2026-04-22 06:58 | -31.85245 | 152.24821 | 35304 ft | 492 kts | 10° |
| 2026-04-22 06:59 | -31.78634 | 152.26880 | 35295 ft | 491 kts | 10° |
| 2026-04-22 06:59 | -31.72022 | 152.28940 | 35297 ft | 491 kts | 10° |
| 2026-04-22 07:00 | -31.65426 | 152.30996 | 35298 ft | 491 kts | 10° |
| 2026-04-22 07:00 | -31.58823 | 152.33044 | 35300 ft | 490 kts | 10° |
| 2026-04-22 07:01 | -31.52225 | 152.35086 | 35299 ft | 490 kts | 9° |
| 2026-04-22 07:01 | -31.45627 | 152.37136 | 35293 ft | 490 kts | 10° |
| 2026-04-22 07:02 | -31.39034 | 152.39190 | 35294 ft | 490 kts | 9° |
| 2026-04-22 07:02 | -31.32444 | 152.41220 | 35280 ft | 490 kts | 9° |
| 2026-04-22 07:03 | -31.25900 | 152.43231 | 35288 ft | 489 kts | 9° |
| 2026-04-22 07:03 | -31.19323 | 152.45258 | 35292 ft | 488 kts | 9° |
| 2026-04-22 07:04 | -31.12758 | 152.47272 | 35285 ft | 489 kts | 9° |
| 2026-04-22 07:04 | -31.06190 | 152.49289 | 35282 ft | 487 kts | 9° |
| 2026-04-22 07:05 | -30.99630 | 152.51312 | 35282 ft | 487 kts | 9° |
| 2026-04-22 07:05 | -30.93077 | 152.53318 | 35279 ft | 488 kts | 9° |
| 2026-04-22 07:06 | -30.86496 | 152.55326 | 35281 ft | 489 kts | 9° |
| 2026-04-22 07:06 | -30.79912 | 152.57334 | 35283 ft | 490 kts | 9° |
| 2026-04-22 07:07 | -30.73358 | 152.59558 | 35280 ft | 492 kts | 12° |
| 2026-04-22 07:07 | -30.66861 | 152.62011 | 35281 ft | 492 kts | 13° |
| 2026-04-22 07:08 | -30.60344 | 152.64460 | 35272 ft | 491 kts | 12° |
| 2026-04-22 07:08 | -30.53878 | 152.66804 | 35273 ft | 489 kts | 12° |
| 2026-04-22 07:09 | -30.47382 | 152.69126 | 35275 ft | 489 kts | 12° |
| 2026-04-22 07:09 | -30.40872 | 152.71467 | 35271 ft | 489 kts | 12° |
| 2026-04-22 07:10 | -30.34375 | 152.73814 | 35272 ft | 489 kts | 12° |
| 2026-04-22 07:10 | -30.27872 | 152.76160 | 35270 ft | 489 kts | 12° |
| 2026-04-22 07:11 | -30.21373 | 152.78495 | 35260 ft | 489 kts | 12° |
| 2026-04-22 07:11 | -30.14873 | 152.80824 | 35242 ft | 488 kts | 11° |
| 2026-04-22 07:12 | -30.08399 | 152.83142 | 35271 ft | 487 kts | 11° |
| 2026-04-22 07:12 | -30.01908 | 152.85466 | 35248 ft | 489 kts | 11° |
| 2026-04-22 07:13 | -29.95409 | 152.87788 | 35243 ft | 489 kts | 11° |
| 2026-04-22 07:13 | -29.88927 | 152.90097 | 35245 ft | 489 kts | 11° |
| 2026-04-22 07:14 | -29.82429 | 152.92404 | 35238 ft | 489 kts | 11° |
| 2026-04-22 07:14 | -29.75973 | 152.94704 | 35237 ft | 489 kts | 11° |
| 2026-04-22 07:15 | -29.69475 | 152.97028 | 35238 ft | 489 kts | 11° |
| 2026-04-22 07:15 | -29.62979 | 152.99334 | 35235 ft | 489 kts | 11° |
| 2026-04-22 07:16 | -29.56484 | 153.01630 | 35237 ft | 488 kts | 11° |
| 2026-04-22 07:16 | -29.49978 | 153.03930 | 35237 ft | 493 kts | 11° |
| 2026-04-22 07:17 | -29.43322 | 153.06284 | 35219 ft | 506 kts | 11° |
| 2026-04-22 07:17 | -29.36568 | 153.08673 | 35232 ft | 508 kts | 11° |
| 2026-04-22 07:18 | -29.29812 | 153.11056 | 35233 ft | 508 kts | 11° |
| 2026-04-22 07:18 | -29.23056 | 153.13445 | 35256 ft | 508 kts | 11° |
| 2026-04-22 07:19 | -29.16284 | 153.15823 | 35233 ft | 509 kts | 11° |
| 2026-04-22 07:19 | -29.09514 | 153.18193 | 35231 ft | 506 kts | 11° |
| 2026-04-22 07:19 | -29.06183 | 153.19366 | 35230 ft | 494 kts | 11° |
| 2026-04-22 07:20 | -29.02910 | 153.20521 | 35233 ft | 490 kts | 11° |
| 2026-04-22 07:20 | -28.96451 | 153.22790 | 35213 ft | 488 kts | 11° |
| 2026-04-22 07:21 | -28.89960 | 153.25048 | 35233 ft | 487 kts | 11° |
| 2026-04-22 07:21 | -28.83468 | 153.27303 | 35232 ft | 487 kts | 11° |
| 2026-04-22 07:22 | -28.76984 | 153.29564 | 35099 ft | 486 kts | 11° |
| 2026-04-22 07:22 | -28.73758 | 153.30692 | 34596 ft | 485 kts | 11° |
| 2026-04-22 07:22 | -28.70539 | 153.31818 | 34006 ft | 484 kts | 11° |
| 2026-04-22 07:22 | -28.67328 | 153.32943 | 33472 ft | 482 kts | 11° |
| 2026-04-22 07:23 | -28.64131 | 153.34061 | 32928 ft | 480 kts | 11° |
| 2026-04-22 07:23 | -28.60941 | 153.35171 | 32382 ft | 478 kts | 11° |
| 2026-04-22 07:23 | -28.57766 | 153.36272 | 31835 ft | 476 kts | 12° |
| 2026-04-22 07:23 | -28.54601 | 153.37369 | 31290 ft | 475 kts | 12° |
| 2026-04-22 07:24 | -28.51445 | 153.38465 | 30741 ft | 473 kts | 12° |
| 2026-04-22 07:24 | -28.48306 | 153.39554 | 30197 ft | 471 kts | 12° |
| 2026-04-22 07:24 | -28.45175 | 153.40640 | 29626 ft | 468 kts | 12° |
| 2026-04-22 07:24 | -28.42083 | 153.41712 | 29123 ft | 463 kts | 12° |
| 2026-04-22 07:25 | -28.39017 | 153.42773 | 28614 ft | 458 kts | 12° |
| 2026-04-22 07:25 | -28.35980 | 153.43818 | 28149 ft | 454 kts | 12° |
| 2026-04-22 07:25 | -28.32971 | 153.44857 | 27647 ft | 451 kts | 12° |
| 2026-04-22 07:25 | -28.29985 | 153.45890 | 27179 ft | 447 kts | 13° |
| 2026-04-22 07:26 | -28.27016 | 153.46920 | 26725 ft | 444 kts | 13° |
| 2026-04-22 07:26 | -28.24076 | 153.47937 | 26268 ft | 441 kts | 13° |
| 2026-04-22 07:26 | -28.21152 | 153.48946 | 25801 ft | 438 kts | 13° |
| 2026-04-22 07:26 | -28.18241 | 153.49908 | 25374 ft | 433 kts | 8° |
| 2026-04-22 07:27 | -28.15299 | 153.50395 | 24953 ft | 424 kts | 358° |
| 2026-04-22 07:27 | -28.12368 | 153.50428 | 24523 ft | 419 kts | 355° |
| 2026-04-22 07:27 | -28.09460 | 153.50429 | 24089 ft | 417 kts | 355° |
| 2026-04-22 07:27 | -28.06605 | 153.50436 | 23641 ft | 415 kts | 355° |
| 2026-04-22 07:28 | -28.00871 | 153.50466 | 22726 ft | 408 kts | 356° |
| 2026-04-22 07:28 | -27.98047 | 153.50486 | 22276 ft | 405 kts | 356° |
| 2026-04-22 07:28 | -27.95243 | 153.50505 | 21836 ft | 401 kts | 356° |
| 2026-04-22 07:29 | -27.92467 | 153.50520 | 21394 ft | 398 kts | 356° |
| 2026-04-22 07:29 | -27.89705 | 153.50532 | 20952 ft | 394 kts | 356° |
| 2026-04-22 07:29 | -27.86975 | 153.50543 | 20510 ft | 391 kts | 356° |
| 2026-04-22 07:29 | -27.84261 | 153.50553 | 20071 ft | 389 kts | 356° |
| 2026-04-22 07:30 | -27.81566 | 153.50559 | 19633 ft | 387 kts | 356° |
| 2026-04-22 07:30 | -27.78880 | 153.50566 | 19195 ft | 385 kts | 357° |
| 2026-04-22 07:30 | -27.76206 | 153.50575 | 18739 ft | 383 kts | 357° |
| 2026-04-22 07:30 | -27.73540 | 153.50585 | 18254 ft | 382 kts | 357° |
| 2026-04-22 07:31 | -27.70884 | 153.50598 | 17804 ft | 379 kts | 358° |
| 2026-04-22 07:31 | -27.68249 | 153.50613 | 17355 ft | 375 kts | 358° |
| 2026-04-22 07:31 | -27.65651 | 153.50628 | 16914 ft | 372 kts | 358° |
| 2026-04-22 07:31 | -27.63078 | 153.50640 | 16478 ft | 369 kts | 358° |
| 2026-04-22 07:32 | -27.60521 | 153.50651 | 16045 ft | 366 kts | 358° |
| 2026-04-22 07:32 | -27.57985 | 153.50662 | 15616 ft | 364 kts | 358° |
| 2026-04-22 07:32 | -27.55459 | 153.50671 | 15186 ft | 362 kts | 359° |
| 2026-04-22 07:32 | -27.52981 | 153.50679 | 14764 ft | 360 kts | 359° |
| 2026-04-22 07:33 | -27.50451 | 153.50687 | 14336 ft | 358 kts | 359° |
| 2026-04-22 07:33 | -27.47988 | 153.50696 | 13905 ft | 357 kts | 359° |
| 2026-04-22 07:33 | -27.45507 | 153.50704 | 13454 ft | 355 kts | 359° |
| 2026-04-22 07:33 | -27.43042 | 153.50715 | 13028 ft | 352 kts | 359° |
| 2026-04-22 07:34 | -27.40605 | 153.50693 | 12617 ft | 350 kts | 358° |
| 2026-04-22 07:34 | -27.38179 | 153.50618 | 12204 ft | 347 kts | 357° |
| 2026-04-22 07:34 | -27.35771 | 153.50514 | 11791 ft | 345 kts | 356° |
| 2026-04-22 07:34 | -27.33391 | 153.50403 | 11576 ft | 337 kts | 356° |
| 2026-04-22 07:35 | -27.31081 | 153.50299 | 11436 ft | 327 kts | 356° |
| 2026-04-22 07:35 | -27.28833 | 153.50206 | 11201 ft | 321 kts | 357° |
| 2026-04-22 07:35 | -27.26608 | 153.50118 | 10855 ft | 319 kts | 357° |
| 2026-04-22 07:35 | -27.24397 | 153.50023 | 10552 ft | 317 kts | 357° |
| 2026-04-22 07:36 | -27.22224 | 153.49924 | 10137 ft | 318 kts | 356° |
| 2026-04-22 07:36 | -27.20031 | 153.49822 | 9560 ft | 313 kts | 356° |
| 2026-04-22 07:36 | -27.18570 | 153.49701 | 9175 ft | 309 kts | 349° |
| 2026-04-22 07:36 | -27.15944 | 153.48673 | 8437 ft | 299 kts | 326° |
| 2026-04-22 07:37 | -27.14813 | 153.47774 | 8064 ft | 293 kts | 315° |
| 2026-04-22 07:37 | -27.13476 | 153.46096 | 7523 ft | 285 kts | 298° |
| 2026-04-22 07:37 | -27.12094 | 153.43623 | 6813 ft | 280 kts | 298° |
| 2026-04-22 07:37 | -27.11397 | 153.42381 | 6434 ft | 279 kts | 299° |
| 2026-04-22 07:38 | -27.10360 | 153.40548 | 5885 ft | 277 kts | 298° |
| 2026-04-22 07:38 | -27.09331 | 153.38733 | 5337 ft | 275 kts | 298° |
| 2026-04-22 07:38 | -27.08319 | 153.36927 | 4788 ft | 272 kts | 296° |
| 2026-04-22 07:38 | -27.07709 | 153.34965 | 4230 ft | 264 kts | 273° |
| 2026-04-22 07:39 | -27.07822 | 153.32959 | 3685 ft | 254 kts | 249° |
| 2026-04-22 07:39 | -27.08572 | 153.31223 | 3268 ft | 240 kts | 228° |
| 2026-04-22 07:39 | -27.09591 | 153.29853 | 3193 ft | 218 kts | 225° |
| 2026-04-22 07:39 | -27.10507 | 153.28612 | 3198 ft | 195 kts | 225° |
| 2026-04-22 07:40 | -27.11320 | 153.27504 | 3231 ft | 173 kts | 224° |
| 2026-04-22 07:40 | -27.12019 | 153.26548 | 3200 ft | 146 kts | 224° |
| 2026-04-22 07:40 | -27.12646 | 153.25702 | 3197 ft | 138 kts | 221° |
| 2026-04-22 07:40 | -27.13341 | 153.24991 | 3204 ft | 135 kts | 210° |
| 2026-04-22 07:41 | -27.14146 | 153.24463 | 3205 ft | 135 kts | 200° |
| 2026-04-22 07:41 | -27.14993 | 153.23984 | 3207 ft | 136 kts | 201° |
| 2026-04-22 07:41 | -27.15839 | 153.23501 | 3205 ft | 136 kts | 202° |
| 2026-04-22 07:41 | -27.16671 | 153.23026 | 3217 ft | 136 kts | 202° |
| 2026-04-22 07:42 | -27.17517 | 153.22544 | 3215 ft | 137 kts | 202° |
| 2026-04-22 07:42 | -27.18364 | 153.22062 | 3229 ft | 136 kts | 202° |
| 2026-04-22 07:42 | -27.19208 | 153.21581 | 3223 ft | 137 kts | 202° |
| 2026-04-22 07:42 | -27.20057 | 153.21097 | 3218 ft | 136 kts | 201° |
| 2026-04-22 07:43 | -27.20905 | 153.20614 | 3151 ft | 136 kts | 201° |
| 2026-04-22 07:43 | -27.21751 | 153.20132 | 3026 ft | 136 kts | 201° |
| 2026-04-22 07:43 | -27.22596 | 153.19650 | 2860 ft | 136 kts | 200° |
| 2026-04-22 07:43 | -27.23437 | 153.19171 | 2691 ft | 136 kts | 200° |
| 2026-04-22 07:44 | -27.24280 | 153.18691 | 2509 ft | 135 kts | 200° |
| 2026-04-22 07:44 | -27.25114 | 153.18215 | 2340 ft | 134 kts | 200° |
| 2026-04-22 07:44 | -27.25947 | 153.17740 | 2156 ft | 134 kts | 198° |
| 2026-04-22 07:44 | -27.26776 | 153.17267 | 1985 ft | 133 kts | 198° |
| 2026-04-22 07:45 | -27.27599 | 153.16797 | 1802 ft | 133 kts | 200° |
| 2026-04-22 07:45 | -27.28424 | 153.16327 | 1631 ft | 133 kts | 200° |
| 2026-04-22 07:45 | -27.29250 | 153.15856 | 1446 ft | 133 kts | 198° |
| 2026-04-22 07:45 | -27.30072 | 153.15386 | 1276 ft | 131 kts | 200° |
| 2026-04-22 07:46 | -27.30878 | 153.14926 | 1103 ft | 133 kts | 200° |
| 2026-04-22 07:46 | -27.31716 | 153.14447 | 915 ft | 133 kts | 199° |
| 2026-04-22 07:46 | -27.32546 | 153.13974 | 745 ft | 134 kts | 202° |
| 2026-04-22 07:46 | -27.33379 | 153.13499 | 580 ft | 137 kts | 201° |
| 2026-04-22 07:47 | -27.34219 | 153.13018 | 383 ft | 135 kts | 200° |
| 2026-04-22 07:47 | -27.35067 | 153.12534 | 209 ft | 137 kts | 202° |
| 2026-04-22 07:47 | -27.35915 | 153.12049 | 29 ft | 136 kts | 205° |
| 2026-04-22 07:47 | -27.36670 | 153.11617 | 17 ft | 92 kts | 207° |
| 2026-04-22 07:48 | -27.37038 | 153.11407 | 17 ft | 53 kts | 205° |
| 2026-04-22 07:48 | -27.37323 | 153.11325 | 18 ft | 36 kts | 171° |
| 2026-04-22 07:48 | -27.37419 | 153.11334 | 18 ft | 0 kts | 177° |
| 2026-04-22 07:49 | -27.37431 | 153.11335 | 18 ft | 3 kts | 177° |
| 2026-04-22 07:49 | -27.37464 | 153.11339 | 18 ft | 6 kts | 165° |
| 2026-04-22 07:49 | -27.37512 | 153.11375 | 18 ft | 10 kts | 136° |
| 2026-04-22 07:50 | -27.37519 | 153.11454 | 18 ft | 12 kts | 53° |
| 2026-04-22 07:50 | -27.37437 | 153.11504 | 18 ft | 15 kts | 27° |
| 2026-04-22 07:50 | -27.37339 | 153.11561 | 18 ft | 16 kts | 34° |
| 2026-04-22 07:50 | -27.37353 | 153.11678 | 18 ft | 18 kts | 119° |
| 2026-04-22 07:51 | -27.37417 | 153.11810 | 19 ft | 20 kts | 117° |
| 2026-04-22 07:51 | -27.37483 | 153.11961 | 18 ft | 23 kts | 116° |
| 2026-04-22 07:51 | -27.37558 | 153.12125 | 18 ft | 25 kts | 117° |
| 2026-04-22 07:51 | -27.37640 | 153.12304 | 18 ft | 26 kts | 117° |
| 2026-04-22 07:52 | -27.37715 | 153.12467 | 18 ft | 22 kts | 117° |
| 2026-04-22 07:52 | -27.37778 | 153.12606 | 19 ft | 20 kts | 117° |
| 2026-04-22 07:52 | -27.37817 | 153.12692 | 18 ft | 0 kts | 117° |
| 2026-04-22 07:53 | -27.37827 | 153.12714 | 18 ft | 6 kts | 117° |
| 2026-04-22 07:53 | -27.37850 | 153.12763 | 18 ft | 9 kts | 117° |
| 2026-04-22 07:53 | -27.37885 | 153.12840 | 18 ft | 13 kts | 117° |
| 2026-04-22 07:54 | -27.37946 | 153.12920 | 18 ft | 15 kts | 170° |
| 2026-04-22 07:54 | -27.38051 | 153.12871 | 18 ft | 18 kts | 208° |
| 2026-04-22 07:54 | -27.38169 | 153.12804 | 20 ft | 20 kts | 206° |
| 2026-04-22 07:54 | -27.38302 | 153.12728 | 19 ft | 19 kts | 206° |
| 2026-04-22 07:55 | -27.38380 | 153.12657 | 20 ft | 14 kts | 256° |
| 2026-04-22 07:55 | -27.38380 | 153.12629 | 18 ft | 0 kts | 275° |
| 2026-04-22 07:55 | -27.38375 | 153.12616 | 19 ft | 4 kts | 291° |
| 2026-04-22 07:55 | -27.38344 | 153.12576 | 18 ft | 8 kts | 317° |
| 2026-04-22 07:56 | -27.38296 | 153.12516 | 18 ft | 12 kts | 300° |
| 2026-04-22 07:56 | -27.38277 | 153.12424 | 18 ft | 13 kts | 252° |
| 2026-04-22 07:56 | -27.38356 | 153.12410 | 18 ft | 14 kts | 173° |
| 2026-04-22 07:56 | -27.38449 | 153.12381 | 18 ft | 13 kts | 229° |
| 2026-04-22 07:57 | -27.38434 | 153.12305 | 18 ft | 11 kts | 275° |
| 2026-04-22 07:57 | -27.38479 | 153.12236 | 18 ft | 13 kts | 217° |
| 2026-04-22 07:57 | -27.38536 | 153.12188 | 18 ft | 9 kts | 217° |
| 2026-04-22 07:57 | -27.38538 | 153.12134 | 18 ft | 0 kts | 303° |